Jobstown, New Jersey
Current Conditions -  °F | °C
As of 11:23 PM on Sunday 25 Jan 2015 (Local Time) from KWRI Reporting Station
Light Snow Light Snow  
Wind Chill: 24°   Ceiling: 2600
Heat Index: 32°   Visibility: 9mi
Dew Point: 21°   Wind: 10mph
Humidity: 64%   Direction: 70°ENE
Pressure: 29.95"   Gusts: NA
Location:  40.04°N, 74.69°W
Report Text: KWRI 260423Z 07009KT 9SM R06/5500FT -SN OVC026 00/M06 A2995 RMK AO2A OVC V BKN
Loading
Personal Weather Stations






























Interactive Weather Map New forecast layout! Learn more

10-Day Weather Forecast

Advertisements
Track Severe Weather on mobile